Аэропорт: Владикавказ (Беслан). Владикавказ

ICAO: URMO

METAR:
2021-07-28 13:30:00
URMO 281330Z 22003MPS 9999 BKN025 BKN088 20/15 Q1019 R09/010070 NOSIG RMK QFE720/0960
METAR:
2021-07-28 11:00:00
TAF URMO 281100Z 2812/2821 08003G08MPS 9999 BKN016 OVC030